ADDS METAR Data INFO
IDs: Format: Raw Decoded Include TAF

Data at: 0501 UTC 18 Feb 2018

K7L2 180455Z AUTO 11004KT 10SM M09/M12 A2990 RMK AO2
K7L2 180435Z AUTO 14004KT 10SM M09/M12 A2991 RMK AO2
K7L2 180415Z AUTO 15006KT 10SM M09/M13 A2991 RMK AO2
K7L2 180355Z AUTO 15006KT 10SM M09/M13 A2992 RMK AO2
K7L2 180335Z AUTO 15004KT 10SM M09/M13 A2992 RMK AO2
K7L2 180315Z AUTO 14005KT 10SM M09/M13 A2992 RMK AO2
K7L2 180255Z AUTO 10004KT 10SM M10/M13 A2992 RMK AO2
K7L2 180235Z AUTO 00000KT 10SM M10/M13 A2993 RMK AO2
K7L2 180215Z AUTO 22006KT 10SM M09/M13 A2994 RMK AO2
K7L2 180155Z AUTO 00000KT 10SM M09/M13 A2995 RMK AO2
K7L2 180135Z AUTO 29004KT 10SM M08/M13 A2996 RMK AO2
K7L2 180115Z AUTO 18004KT 10SM M09/M13 A2998 RMK AO2
K7L2 180055Z AUTO 27006KT 10SM M10/M13 A2998 RMK AO2
K7L2 180035Z AUTO 24004KT 10SM M09/M13 A2997 RMK AO2
K7L2 180015Z AUTO 00000KT 10SM M07/M12 A2997 RMK AO2
K7L2 172355Z AUTO 27008KT 10SM M06/M12 A2997 RMK AO2
K7L2 172335Z AUTO 24005KT 10SM M06/M12 A2998 RMK AO2
K7L2 172315Z AUTO 26008KT 10SM M05/M12 A2999 RMK AO2
K7L2 172255Z AUTO 27008KT 10SM M04/M12 A2999 RMK AO2
K7L2 172235Z AUTO 28010KT 10SM M04/M12 A3000 RMK AO2
K7L2 172215Z AUTO 27011G16KT 10SM M04/M12 A3000 RMK AO2
K7L2 172155Z AUTO 29011G18KT 10SM M04/M12 A2999 RMK AO2
K7L2 172135Z AUTO 30014G19KT 10SM M04/M12 A2999 RMK AO2
K7L2 172115Z AUTO 29010G18KT 10SM M04/M12 A3000 RMK AO2
K7L2 172055Z AUTO 30014KT 10SM M03/M12 A3000 RMK AO2
K7L2 172035Z AUTO 31015KT 10SM M03/M12 A2999 RMK AO2
K7L2 172015Z AUTO 30016KT 10SM M03/M11 A3000 RMK AO2
K7L2 171955Z AUTO 29016KT 10SM M03/M11 A3000 RMK AO2
K7L2 171935Z AUTO 30014KT 10SM M04/M11 A3000 RMK AO2
K7L2 171915Z AUTO 31016KT 10SM M04/M12 A3001 RMK AO2
K7L2 171855Z AUTO 31019KT 10SM M03/M12 A3001 RMK AO2
K7L2 171835Z AUTO 32018KT 10SM M04/M12 A3001 RMK AO2
K7L2 171815Z AUTO 31016G22KT 10SM M04/M11 A3002 RMK AO2
K7L2 171755Z AUTO 32017KT 10SM M04/M11 A3002 RMK AO2
K7L2 171735Z AUTO 30016KT 10SM M05/M11 A3001 RMK AO2
K7L2 171715Z AUTO 31018KT 10SM M05/M11 A3001 RMK AO2
K7L2 171655Z AUTO 31018G25KT 10SM -UP M05/M10 A3000 RMK AO2
K7L2 171635Z AUTO 30019KT 9SM -UP M05/M09 A3000 RMK AO2
K7L2 171615Z AUTO 31017KT 10SM M06/M09 A3000 RMK AO2
K7L2 171555Z AUTO 30013KT 10SM M06/M08 A2999 RMK AO2
K7L2 171535Z AUTO 30008KT 10SM M07/M09 A2998 RMK AO2
K7L2 171515Z AUTO 30008KT 10SM M08/M09 A2997 RMK AO2
K7L2 171455Z AUTO 30006KT 10SM M09/M10 A2996 RMK AO2
K7L2 171435Z AUTO 28004KT 10SM M09/M10 A2995 RMK AO2
K7L2 171415Z AUTO 29004KT 10SM M11/M12 A2994 RMK AO2
K7L2 171355Z AUTO 28005KT 10SM M11/M13 A2993 RMK AO2
K7L2 171335Z AUTO 29005KT 10SM M11/M13 A2993 RMK AO2
K7L2 171315Z AUTO 29004KT 10SM M11/M12 A2991 RMK AO2
K7L2 171255Z AUTO 00000KT 10SM M10/M12 A2990 RMK AO2
K7L2 171235Z AUTO 00000KT 10SM M10/M11 A2989 RMK AO2
K7L2 171215Z AUTO 29004KT 10SM M10/M12 A2987 RMK AO2
K7L2 171155Z AUTO 27004KT 10SM M10/M12 A2987 RMK AO2
K7L2 171135Z AUTO 27003KT 10SM M11/M12 A2986 RMK AO2
K7L2 171115Z AUTO 00000KT 10SM M10/M12 A2986 RMK AO2
K7L2 171055Z AUTO 29004KT 10SM M10/M12 A2985 RMK AO2
K7L2 171035Z AUTO 26004KT 10SM M11/M13 A2985 RMK AO2
K7L2 171015Z AUTO 25005KT 10SM M12/M13 A2984 RMK AO2
K7L2 170955Z AUTO 00000KT 10SM M13/M14 A2983 RMK AO2
K7L2 170935Z AUTO 00000KT 10SM M12/M14 A2982 RMK AO2
K7L2 170915Z AUTO 22003KT 10SM M10/M12 A2982 RMK AO2
K7L2 170855Z AUTO 24003KT 10SM M11/M13 A2982 RMK AO2
K7L2 170835Z AUTO 25003KT 10SM M10/M12 A2983 RMK AO2
K7L2 170815Z AUTO 00000KT 10SM M11/M12 A2983 RMK AO2
K7L2 170755Z AUTO 27004KT 10SM M10/M12 A2982 RMK AO2
K7L2 170735Z AUTO 26004KT 10SM M09/M11 A2982 RMK AO2
K7L2 170715Z AUTO 23004KT 10SM M10/M11 A2982 RMK AO2
K7L2 170655Z AUTO 26004KT 10SM M09/M11 A2983 RMK AO2
K7L2 170635Z AUTO 28006KT 10SM M08/M11 A2982 RMK AO2
K7L2 170615Z AUTO 27005KT 10SM M08/M11 A2982 RMK AO2
K7L2 170555Z AUTO 25005KT 10SM M06/M10 A2982 RMK AO2
K7L2 170535Z AUTO 00000KT 10SM M07/M10 A2982 RMK AO2
K7L2 170515Z AUTO 27006KT 10SM M06/M10 A2982 RMK AO2
K7L2 170455Z AUTO 27004KT 10SM M06/M10 A2983 RMK AO2
K7L2 170435Z AUTO 00000KT 10SM M05/M10 A2983 RMK AO2
K7L2 170415Z AUTO 25003KT 10SM M05/M10 A2983 RMK AO2
K7L2 170355Z AUTO 24007KT 10SM M05/M10 A2983 RMK AO2
K7L2 170335Z AUTO 24006KT 10SM M04/M09 A2983 RMK AO2
K7L2 170315Z AUTO 24007KT 10SM M04/M09 A2983 RMK AO2
K7L2 170255Z AUTO 22007KT 9SM -UP M04/M09 A2983 RMK AO2
K7L2 170235Z AUTO 00000KT 10SM M04/M09 A2984 RMK AO2
K7L2 170215Z AUTO 23003KT 10SM M05/M10 A2984 RMK AO2
K7L2 170155Z AUTO 00000KT 10SM M04/M10 A2985 RMK AO2
K7L2 170135Z AUTO 21005KT 10SM M04/M10 A2985 RMK AO2
K7L2 170115Z AUTO 20008KT 10SM M04/M11 A2985 RMK AO2
K7L2 170055Z AUTO 18008KT 10SM M05/M11 A2985 RMK AO2
K7L2 170035Z AUTO 19009KT 10SM M05/M11 A2985 RMK AO2
K7L2 170015Z AUTO 20009KT 10SM M04/M11 A2986 RMK AO2
K7L2 162355Z AUTO 21009KT 10SM M04/M11 A2986 RMK AO2
K7L2 162335Z AUTO 19007KT 10SM M04/M11 A2986 RMK AO2
K7L2 162315Z AUTO 17008KT 10SM M03/M11 A2986 RMK AO2
K7L2 162255Z AUTO 20010KT 10SM M03/M11 A2987 RMK AO2
K7L2 162235Z AUTO 21008KT 10SM M02/M11 A2988 RMK AO2
K7L2 162215Z AUTO 22008KT 10SM M02/M11 A2990 RMK AO2
K7L2 162155Z AUTO 22010G16KT 10SM M02/M11 A2990 RMK AO2
K7L2 162135Z AUTO 22011KT 10SM M02/M11 A2990 RMK AO2
K7L2 162115Z AUTO 22013G18KT 10SM M02/M11 A2992 RMK AO2
K7L2 162055Z AUTO 21008G13KT 10SM M03/M12 A2993 RMK AO2
K7L2 162035Z AUTO 14008KT 10SM M05/M12 A2994 RMK AO2
K7L2 162015Z AUTO 18009KT 140V220 10SM CLR M04/M12 A2996 RMK AO2
K7L2 161955Z AUTO 20011KT 10SM M04/M13 A2996 RMK AO2
K7L2 161935Z AUTO 20009KT 10SM M05/M13 A2998 RMK AO2
K7L2 161915Z AUTO M06/M14 A2999 RMK AO2 TSNO
K7L2 161855Z AUTO M07/M14 A3001 RMK AO2 TSNO
K7L2 161835Z AUTO 10SM M07/M15 A3003 RMK AO2
K7L2 161815Z AUTO 19006KT 10SM M08/M15 A3005 RMK AO2
K7L2 161755Z AUTO 18008KT 10SM M09/M16 A3006 RMK AO2
K7L2 161735Z AUTO 19007G13KT 10SM M09/M16 A3007 RMK AO2
K7L2 161715Z AUTO 22012KT 10SM M10/M16 A3007 RMK AO2